Time;durP1;ratioP1;P1;durP2;ratioP2;P2;SDS_P1;SDS_P2;PMS_P1;PMS_P2;Temp;Humidity;BMP_temperature;BMP_pressure;BME280_temperature;BME280_humidity;BME280_pressure;Samples;Min_cycle;Max_cycle;Signal;HPM_P1;HPM_P2
2021/04/06 00:00:21;;;;;;;4.27;2.27;;;-0.20;97.30;;;;;;5012657;28;20675;-85
2021/04/06 00:02:50;;;;;;;3.63;2.17;;;-0.20;97.30;;;;;;5014112;28;20505;-85
2021/04/06 00:05:17;;;;;;;3.43;1.80;;;-0.30;97.30;;;;;;5013375;28;20420;-85
2021/04/06 00:07:44;;;;;;;6.23;2.50;;;-0.30;97.30;;;;;;5010653;28;20969;-85
2021/04/06 00:10:19;;;;;;;2.13;1.80;;;-0.20;97.30;;;;;;5010993;28;20424;-85
2021/04/06 00:12:47;;;;;;;3.53;1.97;;;-0.20;97.30;;;;;;5010745;28;20511;-84
2021/04/06 00:15:15;;;;;;;3.50;1.97;;;-0.30;97.30;;;;;;5010411;28;20424;-84
2021/04/06 00:17:44;;;;;;;13.27;2.30;;;-0.30;97.30;;;;;;5007358;28;20514;-85
2021/04/06 00:20:11;;;;;;;4.53;2.00;;;-0.30;97.30;;;;;;5000483;28;20421;-84
2021/04/06 00:22:37;;;;;;;1.97;1.83;;;-0.30;97.30;;;;;;4992303;28;20508;-84
2021/04/06 00:25:06;;;;;;;5.70;2.47;;;-0.30;97.30;;;;;;4993046;28;20844;-85
2021/04/06 00:27:38;;;;;;;5.27;2.20;;;-0.30;97.30;;;;;;4992229;28;20459;-85
2021/04/06 00:30:10;;;;;;;3.57;2.10;;;-0.40;97.30;;;;;;4993007;28;20433;-85
2021/04/06 00:32:37;;;;;;;7.40;3.00;;;-0.40;97.30;;;;;;4997730;28;20475;-85
2021/04/06 00:35:05;;;;;;;6.00;1.97;;;-0.40;97.30;;;;;;5011974;28;20797;-83
2021/04/06 00:37:34;;;;;;;6.43;1.90;;;-0.40;97.30;;;;;;5010175;28;20467;-84
2021/04/06 00:40:09;;;;;;;5.97;2.60;;;-0.40;97.30;;;;;;5010117;28;20440;-84
2021/04/06 00:42:35;;;;;;;6.83;2.50;;;-0.40;97.30;;;;;;5010218;28;20470;-84
2021/04/06 00:45:11;;;;;;;6.73;2.10;;;-0.40;97.30;;;;;;5010259;28;20424;-86
2021/04/06 00:47:37;;;;;;;12.77;2.53;;;-0.50;97.30;;;;;;5010431;28;20526;-85
2021/04/06 00:50:08;;;;;;;5.97;2.13;;;-0.50;97.30;;;;;;5010987;28;20826;-85
2021/04/06 00:52:37;;;;;;;4.83;1.90;;;-0.50;97.30;;;;;;5011836;28;20411;-84
2021/04/06 00:55:03;;;;;;;5.50;2.00;;;-0.60;97.30;;;;;;5010089;28;20519;-85
2021/04/06 00:57:32;;;;;;;5.13;2.40;;;-0.50;97.30;;;;;;5010438;28;20507;-84
2021/04/06 01:00:21;;;;;;;7.27;2.53;;;-0.50;97.30;;;;;;5011769;28;20419;-84
2021/04/06 01:03:23;;;;;;;2.80;2.00;;;-0.50;97.30;;;;;;5010245;28;20413;-84
2021/04/06 01:06:01;;;;;;;4.30;2.63;;;-0.50;97.30;;;;;;4980119;28;20438;-83
2021/04/06 01:08:28;;;;;;;11.17;3.00;;;-0.50;97.30;;;;;;5010526;28;20411;-85
2021/04/06 01:10:55;;;;;;;2.67;2.50;;;-0.50;97.30;;;;;;5010467;28;20415;-84
2021/04/06 01:13:24;;;;;;;5.43;2.40;;;-0.60;97.30;;;;;;5009993;28;20458;-85
2021/04/06 01:15:56;;;;;;;7.30;2.57;;;-0.60;97.30;;;;;;5010112;28;20927;-84
2021/04/06 01:18:23;;;;;;;7.37;3.47;;;-0.60;97.30;;;;;;5010318;28;20463;-84
2021/04/06 01:20:50;;;;;;;6.40;3.07;;;-0.60;97.30;;;;;;5010588;28;20495;-84
2021/04/06 01:23:18;;;;;;;6.63;3.80;;;-0.70;97.30;;;;;;5009817;28;20420;-85
2021/04/06 01:25:48;;;;;;;6.93;2.70;;;-0.70;97.30;;;;;;5011875;28;20558;-84
2021/04/06 01:28:14;;;;;;;6.73;2.57;;;-0.70;97.30;;;;;;5010456;28;20443;-84
2021/04/06 01:30:45;;;;;;;6.30;2.50;;;-0.60;97.30;;;;;;5011626;28;20412;-84
2021/04/06 01:33:19;;;;;;;5.70;2.73;;;-0.60;97.30;;;;;;5011524;28;20271;-86
2021/04/06 01:35:47;;;;;;;8.60;2.97;;;-0.70;97.30;;;;;;5012614;28;20419;-85
2021/04/06 01:38:14;;;;;;;3.50;2.60;;;-0.70;97.30;;;;;;5012116;28;20468;-84
2021/04/06 01:40:42;;;;;;;2.53;1.97;;;-0.70;97.30;;;;;;5013483;28;20408;-85
2021/04/06 01:43:10;;;;;;;6.63;2.23;;;-0.70;97.30;;;;;;5015215;28;20415;-84
2021/04/06 01:45:55;;;;;;;3.17;2.50;;;-0.70;97.30;;;;;;5015257;28;20407;-84
2021/04/06 01:48:20;;;;;;;5.40;2.40;;;-0.70;97.30;;;;;;5015243;28;20518;-84
2021/04/06 01:50:51;;;;;;;6.43;3.00;;;-0.60;97.30;;;;;;5016024;28;20451;-85
2021/04/06 01:53:19;;;;;;;4.43;2.50;;;-0.60;97.30;;;;;;5014362;28;20276;-84
2021/04/06 01:55:51;;;;;;;4.97;2.50;;;-0.60;97.30;;;;;;5014038;28;20420;-84
2021/04/06 01:58:18;;;;;;;5.77;2.27;;;-0.60;97.30;;;;;;5014527;28;20858;-85
2021/04/06 02:03:17;;;;;;;7.73;2.40;;;-0.60;97.30;;;;;;5016095;28;20946;-85
2021/04/06 02:05:45;;;;;;;4.90;2.27;;;-0.60;97.30;;;;;;5015443;28;20424;-84
2021/04/06 02:08:15;;;;;;;5.27;2.20;;;-0.60;97.30;;;;;;5014748;28;20436;-84
2021/04/06 02:10:42;;;;;;;5.20;2.10;;;-0.60;97.30;;;;;;5013802;28;20435;-84
2021/04/06 02:13:12;;;;;;;6.60;2.50;;;-0.60;97.30;;;;;;5013338;28;20416;-84
2021/04/06 02:15:56;;;;;;;5.53;2.53;;;-0.60;97.30;;;;;;5013681;28;20424;-85
2021/04/06 02:18:27;;;;;;;4.80;2.30;;;-0.60;97.30;;;;;;5013004;28;20463;-85
2021/04/06 02:20:55;;;;;;;7.13;2.60;;;-0.60;97.30;;;;;;5012308;28;20408;-84
2021/04/06 02:23:21;;;;;;;8.50;2.90;;;-0.60;97.30;;;;;;5013138;28;20421;-84
2021/04/06 02:25:55;;;;;;;4.60;2.73;;;-0.60;97.30;;;;;;5012963;28;20448;-84
2021/04/06 02:28:25;;;;;;;4.10;2.80;;;-0.60;97.30;;;;;;5013265;28;20424;-85
2021/04/06 02:30:58;;;;;;;4.87;3.20;;;-0.50;97.30;;;;;;5012806;28;20425;-85
2021/04/06 02:33:29;;;;;;;5.07;2.87;;;-0.40;97.30;;;;;;5012465;28;20420;-85
2021/04/06 02:36:07;;;;;;;8.07;3.00;;;-0.40;97.30;;;;;;5013316;28;20493;-84
2021/04/06 02:38:34;;;;;;;3.13;2.80;;;-0.30;97.30;;;;;;5029170;28;20468;-84
2021/04/06 02:41:03;;;;;;;11.60;3.47;;;-0.30;97.30;;;;;;5012655;28;20875;-84
2021/04/06 02:43:51;;;;;;;4.10;3.10;;;-0.20;97.30;;;;;;5012481;28;20808;-84
2021/04/06 02:46:22;;;;;;;6.33;2.87;;;-0.20;97.30;;;;;;5013907;28;20458;-84
2021/04/06 02:48:48;;;;;;;7.47;3.40;;;-0.20;97.30;;;;;;5012920;28;20483;-84
2021/04/06 02:51:15;;;;;;;5.53;3.10;;;-0.20;97.30;;;;;;5013717;28;20467;-85
2021/04/06 02:53:41;;;;;;;9.93;3.20;;;-0.20;97.30;;;;;;5012612;28;20806;-85
2021/04/06 02:56:07;;;;;;;3.83;2.60;;;-0.20;97.30;;;;;;5012636;28;20486;-84
2021/04/06 02:58:37;;;;;;;5.07;2.90;;;-0.20;97.30;;;;;;5012319;28;20471;-83
2021/04/06 03:01:14;;;;;;;15.57;4.87;;;-0.20;97.30;;;;;;5012433;28;20421;-84
2021/04/06 03:03:40;;;;;;;12.80;3.53;;;-0.30;97.30;;;;;;5011038;28;20499;-84
2021/04/06 03:06:14;;;;;;;8.60;3.80;;;-0.30;97.30;;;;;;5012156;28;20417;-84
2021/04/06 03:08:41;;;;;;;11.53;4.10;;;-0.30;97.30;;;;;;5012257;28;20752;-85
2021/04/06 03:11:11;;;;;;;7.83;4.70;;;-0.40;97.30;;;;;;5012920;28;20499;-84
2021/04/06 03:13:42;;;;;;;10.60;4.50;;;-0.40;97.30;;;;;;5011332;28;20428;-84
2021/04/06 03:16:09;;;;;;;9.60;4.80;;;-0.40;97.30;;;;;;5011345;28;20424;-84
2021/04/06 03:18:39;;;;;;;8.90;4.27;;;-0.40;97.30;;;;;;5011363;28;20448;-84
2021/04/06 03:21:10;;;;;;;11.70;4.53;;;-0.40;97.30;;;;;;5011903;28;20945;-85
2021/04/06 03:23:37;;;;;;;10.43;4.20;;;-0.40;97.30;;;;;;5012068;28;20571;-84
2021/04/06 03:26:04;;;;;;;7.90;4.20;;;-0.40;97.30;;;;;;5011838;28;20424;-84
2021/04/06 03:28:32;;;;;;;10.60;5.23;;;-0.40;97.30;;;;;;5011852;28;20420;-84
2021/04/06 03:31:12;;;;;;;8.53;4.20;;;-0.40;97.30;;;;;;5011873;28;20923;-84
2021/04/06 03:33:48;;;;;;;10.07;3.93;;;-0.40;97.30;;;;;;5011822;28;20424;-85
2021/04/06 03:36:33;;;;;;;13.30;5.17;;;-0.40;97.30;;;;;;5011430;28;20431;-84
2021/04/06 03:39:01;;;;;;;7.93;3.87;;;-0.40;97.30;;;;;;5013869;28;20890;-84
2021/04/06 03:41:29;;;;;;;10.70;4.10;;;-0.40;97.30;;;;;;5015660;28;20895;-84
2021/04/06 03:44:13;;;;;;;20.17;5.10;;;-0.40;97.30;;;;;;5011814;28;20922;-84
2021/04/06 03:46:41;;;;;;;9.17;4.47;;;-0.40;97.30;;;;;;5028936;23;20495;-85
2021/04/06 03:49:18;;;;;;;9.23;5.00;;;-0.40;97.30;;;;;;5054295;28;20430;-86
2021/04/06 03:51:52;;;;;;;11.80;4.90;;;-0.40;97.30;;;;;;5057145;28;20394;-85
2021/04/06 03:54:40;;;;;;;9.67;4.03;;;-0.40;97.30;;;;;;5051777;28;20410;-85
2021/04/06 03:57:30;;;;;;;7.80;3.97;;;-0.30;97.30;;;;;;5051369;28;20455;-85
2021/04/06 03:59:56;;;;;;;7.93;4.47;;;-0.30;97.30;;;;;;5051175;28;20407;-85
2021/04/06 04:02:22;;;;;;;7.50;3.87;;;-0.30;97.30;;;;;;5054961;28;20514;-85
2021/04/06 04:04:49;;;;;;;10.00;3.93;;;-0.30;97.30;;;;;;5052100;28;20201;-85
2021/04/06 04:07:15;;;;;;;7.40;3.43;;;-0.30;97.30;;;;;;5052300;28;20754;-83
2021/04/06 04:09:41;;;;;;;7.30;4.70;;;-0.30;97.30;;;;;;5053863;28;20406;-85
2021/04/06 04:12:07;;;;;;;7.13;3.80;;;-0.30;97.30;;;;;;5054461;28;20425;-85
2021/04/06 04:14:32;;;;;;;12.53;4.50;;;-0.30;97.30;;;;;;5054283;28;20231;-85
2021/04/06 04:16:58;;;;;;;7.17;3.77;;;-0.40;97.30;;;;;;5054751;28;20541;-85
2021/04/06 04:19:24;;;;;;;6.83;3.70;;;-0.40;97.30;;;;;;5055253;28;20176;-84
2021/04/06 04:21:50;;;;;;;13.60;5.57;;;-0.50;97.30;;;;;;5056435;28;20175;-85
2021/04/06 04:24:15;;;;;;;7.30;4.30;;;-0.50;97.30;;;;;;5055835;28;20172;-85
2021/04/06 04:26:41;;;;;;;11.90;4.10;;;-0.60;97.30;;;;;;5055357;28;20295;-85
2021/04/06 04:29:07;;;;;;;5.70;3.87;;;-0.70;97.30;;;;;;5054895;28;20243;-86
2021/04/06 04:31:33;;;;;;;13.17;4.90;;;-0.70;97.30;;;;;;5054910;28;20720;-85
2021/04/06 04:33:58;;;;;;;8.33;4.23;;;-0.80;97.30;;;;;;5037482;28;20674;-85
2021/04/06 04:36:24;;;;;;;9.67;4.07;;;-0.80;97.30;;;;;;5036111;28;20271;-85
2021/04/06 04:38:50;;;;;;;10.67;4.30;;;-0.80;97.30;;;;;;5035566;28;20551;-85
2021/04/06 04:41:15;;;;;;;7.07;4.40;;;-0.80;97.30;;;;;;5035254;28;20318;-85
2021/04/06 04:43:41;;;;;;;9.00;4.73;;;-0.80;97.30;;;;;;5034460;28;20177;-86
2021/04/06 04:46:07;;;;;;;12.50;5.00;;;-0.80;97.30;;;;;;5035511;28;20187;-85
2021/04/06 04:48:33;;;;;;;11.83;5.03;;;-0.80;97.30;;;;;;5034970;28;20467;-85
2021/04/06 04:50:58;;;;;;;9.23;5.00;;;-0.70;97.30;;;;;;5036033;28;20515;-86
2021/04/06 04:53:24;;;;;;;10.80;5.20;;;-0.70;97.30;;;;;;5034580;28;20183;-86
2021/04/06 04:55:50;;;;;;;17.43;5.60;;;-0.70;97.30;;;;;;5034610;28;20184;-86
2021/04/06 04:58:15;;;;;;;10.33;4.80;;;-0.60;97.30;;;;;;5034082;28;20205;-86
2021/04/06 05:00:41;;;;;;;17.33;5.20;;;-0.60;97.30;;;;;;5032506;28;20176;-86
2021/04/06 05:03:07;;;;;;;10.17;6.67;;;-0.60;97.30;;;;;;5030913;28;20409;-86
2021/04/06 05:05:32;;;;;;;13.33;5.50;;;-0.60;97.30;;;;;;5032448;28;20180;-85
2021/04/06 05:07:58;;;;;;;11.63;5.77;;;-0.60;97.30;;;;;;5032110;28;20209;-86
2021/04/06 05:10:24;;;;;;;10.30;5.90;;;-0.60;97.30;;;;;;5032888;28;20184;-86
2021/04/06 05:12:49;;;;;;;14.00;6.20;;;-0.60;97.30;;;;;;5034238;28;20173;-85
2021/04/06 05:15:16;;;;;;;14.80;5.80;;;-0.60;97.30;;;;;;5036062;28;20259;-86
2021/04/06 05:17:42;;;;;;;10.80;6.10;;;-0.60;97.30;;;;;;5037709;28;20334;-86
2021/04/06 05:20:09;;;;;;;8.57;5.20;;;-0.60;97.30;;;;;;5036274;28;20426;-87
2021/04/06 05:22:35;;;;;;;17.57;5.87;;;-0.60;97.30;;;;;;5036020;28;20415;-86
2021/04/06 05:25:02;;;;;;;13.00;6.33;;;-0.50;97.30;;;;;;5037301;28;20455;-85
2021/04/06 05:27:28;;;;;;;11.70;5.80;;;-0.50;97.30;;;;;;5032579;23;20492;-68
2021/04/06 05:29:54;;;;;;;9.50;5.87;;;-0.40;97.30;;;;;;5016267;28;20407;-71
2021/04/06 05:32:19;;;;;;;13.90;5.97;;;-0.40;97.30;;;;;;5007737;28;20202;-72
2021/04/06 05:34:45;;;;;;;13.03;6.60;;;-0.40;97.30;;;;;;4995100;28;20421;-70
2021/04/06 05:37:11;;;;;;;13.77;6.30;;;-0.40;97.30;;;;;;4995840;28;20194;-71
2021/04/06 05:39:37;;;;;;;14.20;6.73;;;-0.30;97.30;;;;;;4995180;28;20185;-69
2021/04/06 05:42:03;;;;;;;13.13;5.93;;;-0.30;97.30;;;;;;4999742;28;20221;-70
2021/04/06 05:44:29;;;;;;;12.13;7.00;;;-0.20;97.30;;;;;;5002107;28;20178;-70
2021/04/06 05:46:58;;;;;;;14.40;7.70;;;-0.20;97.30;;;;;;5000240;28;20425;-70
2021/04/06 05:49:27;;;;;;;25.17;8.50;;;-0.20;97.30;;;;;;5014966;28;20474;-72
2021/04/06 05:51:54;;;;;;;13.30;6.90;;;-0.20;97.30;;;;;;5014452;28;20444;-70
2021/04/06 05:54:20;;;;;;;14.10;7.90;;;-0.20;97.30;;;;;;5014794;28;20408;-70
2021/04/06 05:56:46;;;;;;;17.87;7.17;;;-0.20;97.30;;;;;;5013283;28;20443;-71
2021/04/06 05:59:12;;;;;;;23.37;8.47;;;-0.20;97.30;;;;;;5013584;28;20444;-72
2021/04/06 06:01:43;;;;;;;22.97;9.20;;;-0.20;97.30;;;;;;5011170;28;20443;-74
2021/04/06 06:04:10;;;;;;;21.50;8.40;;;-0.20;97.30;;;;;;4993943;28;20566;-73
2021/04/06 06:06:36;;;;;;;22.67;9.93;;;-0.20;97.30;;;;;;4994009;28;20417;-74
2021/04/06 06:09:04;;;;;;;20.70;9.50;;;-0.20;97.30;;;;;;4994450;28;20766;-72
2021/04/06 06:11:30;;;;;;;19.80;9.30;;;-0.20;97.30;;;;;;4993402;28;20223;-73
2021/04/06 06:13:56;;;;;;;23.50;10.73;;;-0.10;97.30;;;;;;4993931;28;20484;-72
2021/04/06 06:16:31;;;;;;;24.60;9.90;;;-0.10;97.30;;;;;;4993672;28;20420;-73
2021/04/06 06:19:10;;;;;;;21.23;9.43;;;-0.10;97.30;;;;;;4993062;28;20460;-73
2021/04/06 06:21:43;;;;;;;21.37;9.40;;;-0.10;97.30;;;;;;4997550;28;20440;-73
2021/04/06 06:24:11;;;;;;;20.37;10.17;;;0.00;97.30;;;;;;5014140;28;20447;-73
2021/04/06 06:26:37;;;;;;;23.20;10.00;;;0.00;97.30;;;;;;5011875;28;20452;-72
2021/04/06 06:29:10;;;;;;;25.83;9.53;;;0.00;97.30;;;;;;5012682;28;20515;-73
2021/04/06 06:31:45;;;;;;;22.17;9.50;;;0.00;97.30;;;;;;5012020;28;20464;-73
2021/04/06 06:34:34;;;;;;;17.20;8.27;;;0.00;97.30;;;;;;5012362;28;20454;-73
2021/04/06 06:37:24;;;;;;;19.53;9.27;;;0.10;97.30;;;;;;5011848;28;20823;-73
2021/04/06 06:40:06;;;;;;;23.40;9.27;;;0.30;97.30;;;;;;5012215;28;20975;-73
2021/04/06 06:42:33;;;;;;;22.87;8.83;;;0.40;97.30;;;;;;5012692;28;20436;-73
2021/04/06 06:45:00;;;;;;;17.90;8.77;;;0.50;97.30;;;;;;5011925;28;20550;-74
2021/04/06 06:47:27;;;;;;;19.77;9.63;;;0.70;97.30;;;;;;5012221;28;20444;-73
2021/04/06 06:49:55;;;;;;;20.90;9.20;;;0.70;97.30;;;;;;5012053;28;20432;-74
2021/04/06 06:52:24;;;;;;;17.80;8.43;;;0.80;97.30;;;;;;5012013;28;20930;-73
2021/04/06 06:54:52;;;;;;;29.30;10.07;;;0.90;97.30;;;;;;5011938;28;20416;-74
2021/04/06 06:57:25;;;;;;;23.27;9.17;;;1.10;97.30;;;;;;5012607;28;20459;-74
2021/04/06 06:59:50;;;;;;;29.10;11.07;;;1.30;97.30;;;;;;5013220;28;20497;-74
2021/04/06 07:02:27;;;;;;;16.27;7.93;;;1.40;97.30;;;;;;5011917;28;20474;-74
2021/04/06 07:05:08;;;;;;;12.87;6.90;;;1.50;97.30;;;;;;5011852;28;20195;-74
2021/04/06 07:07:56;;;;;;;12.50;6.97;;;1.50;97.30;;;;;;5011390;28;20442;-74
2021/04/06 07:10:30;;;;;;;12.00;5.80;;;1.50;97.30;;;;;;5011719;28;20442;-75
2021/04/06 07:13:19;;;;;;;12.00;5.90;;;1.60;97.30;;;;;;5011983;28;20913;-75
2021/04/06 07:15:47;;;;;;;11.53;5.73;;;1.70;97.30;;;;;;5012087;28;20439;-73
2021/04/06 07:18:19;;;;;;;12.00;5.93;;;1.70;97.30;;;;;;5011751;28;20531;-73
2021/04/06 07:20:58;;;;;;;13.00;6.10;;;1.80;97.30;;;;;;5011829;28;20436;-73
2021/04/06 07:23:54;;;;;;;9.27;5.50;;;1.80;97.30;;;;;;5011624;28;20781;-73
2021/04/06 07:26:20;;;;;;;6.53;4.07;;;1.90;97.30;;;;;;5009415;28;20408;-74
2021/04/06 07:28:47;;;;;;;12.80;5.10;;;1.90;97.30;;;;;;4998727;28;20482;-73
2021/04/06 07:31:15;;;;;;;15.03;4.53;;;1.80;97.30;;;;;;4992127;28;20448;-73
2021/04/06 07:33:41;;;;;;;8.40;4.17;;;1.90;97.30;;;;;;4991756;28;20509;-73
2021/04/06 07:36:16;;;;;;;7.27;4.37;;;2.00;97.30;;;;;;4992330;28;20432;-73
2021/04/06 07:38:48;;;;;;;8.00;3.70;;;2.00;97.30;;;;;;4990966;28;20502;-71
2021/04/06 07:41:18;;;;;;;11.80;3.80;;;2.00;97.30;;;;;;4993896;28;20437;-72
2021/04/06 07:43:46;;;;;;;5.20;3.50;;;2.00;97.30;;;;;;4991993;28;20425;-72
2021/04/06 07:46:34;;;;;;;7.77;3.90;;;1.90;97.30;;;;;;4991930;28;20542;-71
2021/04/06 07:49:19;;;;;;;8.80;4.00;;;1.90;97.30;;;;;;4998229;28;20499;-74
2021/04/06 07:51:45;;;;;;;11.83;3.70;;;2.00;97.30;;;;;;4992928;28;20452;-72
2021/04/06 07:54:41;;;;;;;8.50;4.60;;;2.10;97.30;;;;;;4993893;28;20420;-71
2021/04/06 07:57:07;;;;;;;5.77;3.60;;;2.20;97.30;;;;;;5012440;28;20559;-72
2021/04/06 07:59:33;;;;;;;7.60;3.80;;;2.20;97.30;;;;;;5000706;28;20535;-72
2021/04/06 08:02:01;;;;;;;8.60;3.87;;;2.30;97.30;;;;;;4999813;28;20245;-72
2021/04/06 08:04:47;;;;;;;5.33;3.00;;;2.40;97.30;;;;;;4998567;28;20174;-75
2021/04/06 08:07:19;;;;;;;6.63;3.33;;;2.50;97.30;;;;;;5000321;28;20472;-72
2021/04/06 08:09:59;;;;;;;7.43;3.67;;;2.50;97.30;;;;;;5003752;28;20428;-73
2021/04/06 08:12:35;;;;;;;3.60;3.17;;;2.60;97.30;;;;;;5000663;28;20444;-72
2021/04/06 08:15:22;;;;;;;11.03;3.87;;;2.70;97.30;;;;;;5000372;28;20415;-74
2021/04/06 08:17:50;;;;;;;10.43;3.60;;;2.60;97.30;;;;;;5000525;28;20452;-72
2021/04/06 08:20:35;;;;;;;5.07;2.83;;;2.60;97.30;;;;;;4995908;28;20413;-72
2021/04/06 08:23:02;;;;;;;6.47;3.00;;;2.70;97.30;;;;;;5001020;28;20827;-72
2021/04/06 08:25:30;;;;;;;4.83;3.20;;;2.80;97.30;;;;;;4999010;28;20412;-72
2021/04/06 08:27:58;;;;;;;9.73;3.00;;;2.90;97.30;;;;;;4997767;28;20467;-72
2021/04/06 08:30:36;;;;;;;9.93;3.73;;;3.00;97.30;;;;;;5001333;28;20499;-73
2021/04/06 08:33:02;;;;;;;6.57;2.93;;;3.10;97.30;;;;;;5020416;28;20416;-73
2021/04/06 08:35:49;;;;;;;9.03;3.80;;;3.10;97.00;;;;;;5011530;28;20419;-72
2021/04/06 08:38:24;;;;;;;6.33;2.60;;;3.30;96.60;;;;;;5010007;28;20540;-73
2021/04/06 08:40:59;;;;;;;9.03;3.60;;;3.40;95.40;;;;;;5009957;28;20428;-71
2021/04/06 08:43:36;;;;;;;8.73;3.13;;;3.30;95.40;;;;;;5010237;28;20415;-72
2021/04/06 08:46:09;;;;;;;8.77;3.53;;;3.20;96.00;;;;;;5008429;28;20421;-73
2021/04/06 08:48:48;;;;;;;5.30;2.57;;;3.30;96.60;;;;;;5000016;28;21054;-72
2021/04/06 08:51:50;;;;;;;10.77;2.57;;;3.40;94.70;;;;;;5010007;28;20529;-72
2021/04/06 08:54:20;;;;;;;7.07;3.07;;;3.50;94.10;;;;;;4999386;28;20490;-73
2021/04/06 08:56:58;;;;;;;9.37;2.47;;;3.90;94.90;;;;;;5010086;28;20958;-72
2021/04/06 08:59:33;;;;;;;7.23;2.53;;;4.20;93.60;;;;;;5010113;28;20927;-70
2021/04/06 09:02:00;;;;;;;3.70;2.27;;;4.30;92.70;;;;;;5010429;28;20431;-70
2021/04/06 09:04:28;;;;;;;8.97;3.10;;;4.30;91.70;;;;;;5010213;28;20466;-71
2021/04/06 09:06:54;;;;;;;9.20;2.60;;;4.40;92.20;;;;;;5009990;28;20911;-71
2021/04/06 09:09:40;;;;;;;2.63;2.03;;;4.30;90.80;;;;;;4998602;28;20418;-70
2021/04/06 09:12:06;;;;;;;5.83;2.90;;;4.00;92.10;;;;;;4989772;28;20461;-71
2021/04/06 09:14:32;;;;;;;3.77;2.30;;;4.10;92.10;;;;;;4990341;28;20456;-72
2021/04/06 09:16:58;;;;;;;10.33;3.10;;;4.10;92.40;;;;;;4989919;28;20417;-72
2021/04/06 09:19:25;;;;;;;6.87;2.70;;;4.10;92.60;;;;;;4991163;28;20432;-72
2021/04/06 09:21:53;;;;;;;5.67;2.47;;;4.10;92.60;;;;;;4992474;28;20433;-71
2021/04/06 09:24:20;;;;;;;6.23;2.50;;;3.90;93.20;;;;;;4990327;28;20412;-72
2021/04/06 09:26:49;;;;;;;5.77;2.63;;;3.90;94.20;;;;;;4990376;28;20837;-72
2021/04/06 09:29:21;;;;;;;6.30;2.60;;;3.80;94.40;;;;;;4990013;28;20425;-72
2021/04/06 09:31:52;;;;;;;15.60;2.50;;;3.70;95.20;;;;;;4990178;28;20472;-72
2021/04/06 09:34:22;;;;;;;4.93;2.20;;;3.70;96.10;;;;;;4990861;28;20405;-71
2021/04/06 09:36:52;;;;;;;11.77;3.00;;;3.60;96.30;;;;;;4989937;28;20464;-73
2021/04/06 09:39:19;;;;;;;2.90;2.57;;;3.40;97.30;;;;;;4990892;28;20471;-73
2021/04/06 09:41:45;;;;;;;3.67;2.60;;;3.20;97.30;;;;;;4990335;28;20955;-73
2021/04/06 09:44:15;;;;;;;9.13;2.97;;;2.90;97.30;;;;;;4991599;28;20820;-72
2021/04/06 09:46:44;;;;;;;7.30;2.43;;;2.30;97.30;;;;;;4993873;28;20919;-72
2021/04/06 09:49:11;;;;;;;6.20;2.67;;;2.00;97.30;;;;;;5009691;28;20478;-71
2021/04/06 09:51:38;;;;;;;8.50;3.27;;;1.90;97.30;;;;;;5052069;23;20589;-67
2021/04/06 09:54:05;;;;;;;10.60;3.23;;;2.10;97.30;;;;;;5046973;28;20406;-67
2021/04/06 09:56:34;;;;;;;7.60;3.43;;;2.40;97.30;;;;;;5049162;28;20925;-69
2021/04/06 09:59:03;;;;;;;10.87;3.87;;;2.60;97.30;;;;;;5047481;28;20460;-67
2021/04/06 10:01:28;;;;;;;5.83;2.80;;;2.80;97.30;;;;;;5022484;28;20502;-67
2021/04/06 10:03:57;;;;;;;9.03;3.33;;;2.80;97.30;;;;;;5013070;28;20408;-67
2021/04/06 10:06:38;;;;;;;7.53;3.00;;;3.10;97.30;;;;;;5012898;28;20408;-67
2021/04/06 10:09:25;;;;;;;11.90;3.33;;;3.20;97.30;;;;;;5013702;28;20414;-67
2021/04/06 10:11:52;;;;;;;10.33;5.90;;;3.40;97.30;;;;;;5012738;28;20440;-67
2021/04/06 10:14:18;;;;;;;7.83;2.90;;;3.50;97.30;;;;;;5013491;28;20419;-67
2021/04/06 10:16:45;;;;;;;12.53;3.10;;;3.70;97.30;;;;;;5012227;28;20420;-68
2021/04/06 10:19:22;;;;;;;6.13;2.93;;;3.70;97.30;;;;;;5012378;28;20455;-68
2021/04/06 10:22:01;;;;;;;6.60;3.57;;;4.00;97.30;;;;;;5012007;28;20535;-68
2021/04/06 10:24:29;;;;;;;5.70;3.40;;;4.30;97.30;;;;;;5013467;28;20486;-68
2021/04/06 10:27:18;;;;;;;4.73;2.80;;;4.30;97.30;;;;;;5012585;28;20417;-68
2021/04/06 10:29:45;;;;;;;9.53;3.20;;;4.50;97.30;;;;;;5013383;28;20392;-70
2021/04/06 10:32:47;;;;;;;6.33;3.60;;;4.60;97.30;;;;;;5013230;28;20464;-68
2021/04/06 10:35:28;;;;;;;9.70;3.37;;;5.10;97.30;;;;;;5012348;28;20446;-69
2021/04/06 10:37:57;;;;;;;6.90;2.87;;;5.10;97.30;;;;;;5012317;28;20460;-69
2021/04/06 10:40:29;;;;;;;6.03;2.90;;;5.10;97.30;;;;;;5018251;28;20948;-70
2021/04/06 10:43:16;;;;;;;7.80;2.97;;;5.10;97.30;;;;;;5032389;28;20404;-70
2021/04/06 10:45:52;;;;;;;13.60;3.77;;;5.40;97.30;;;;;;5032182;28;20407;-70
2021/04/06 10:48:29;;;;;;;7.30;2.97;;;5.40;94.70;;;;;;5031630;28;20906;-70
2021/04/06 10:54:49;;;;;;;11.40;3.37;;;5.40;93.80;;;;;;4992388;28;20472;-68
2021/04/06 10:57:26;;;;;;;6.13;2.80;;;5.50;94.50;;;;;;4991188;28;20535;-70
2021/04/06 10:59:52;;;;;;;7.50;3.03;;;5.80;92.40;;;;;;4992251;28;20409;-71
2021/04/06 11:02:27;;;;;;;4.40;2.93;;;6.10;92.60;;;;;;4991810;28;20944;-70
2021/04/06 11:04:54;;;;;;;6.70;3.40;;;6.20;91.40;;;;;;4993725;28;20189;-71
2021/04/06 11:07:28;;;;;;;7.13;3.17;;;5.80;91.10;;;;;;4992503;28;20413;-71
2021/04/06 11:10:03;;;;;;;10.00;3.37;;;5.50;92.70;;;;;;4991896;28;20843;-69
2021/04/06 11:12:28;;;;;;;2.63;2.27;;;4.80;95.70;;;;;;4993473;28;20437;-70
2021/04/06 11:14:54;;;;;;;10.97;4.30;;;3.90;97.30;;;;;;4991910;28;21020;-70
2021/04/06 11:17:20;;;;;;;5.90;3.40;;;3.10;97.30;;;;;;4991559;28;20515;-71
2021/04/06 11:19:46;;;;;;;6.50;3.27;;;2.80;97.30;;;;;;4992050;28;20602;-71
2021/04/06 11:22:17;;;;;;;9.73;3.33;;;2.70;97.30;;;;;;5020426;23;20256;-84
2021/04/06 11:24:46;;;;;;;5.93;3.23;;;2.60;97.30;;;;;;5020409;28;20407;-85
2021/04/06 11:27:17;;;;;;;7.57;3.53;;;2.60;97.30;;;;;;5019918;28;20435;-84
2021/04/06 11:29:43;;;;;;;5.30;3.00;;;2.70;97.30;;;;;;5014604;28;20464;-84
2021/04/06 11:32:30;;;;;;;7.50;2.30;;;2.90;97.30;;;;;;4997495;28;20524;-84
2021/04/06 11:34:55;;;;;;;11.40;3.23;;;3.30;97.30;;;;;;4997798;28;20161;-82
2021/04/06 11:37:21;;;;;;;13.90;3.40;;;3.60;97.30;;;;;;5001159;28;20441;-84
2021/04/06 11:40:03;;;;;;;6.73;2.57;;;4.00;97.30;;;;;;5002600;28;20174;-84
2021/04/06 11:42:31;;;;;;;9.73;3.10;;;4.40;97.30;;;;;;4999630;28;20456;-84
2021/04/06 11:44:57;;;;;;;5.37;2.97;;;4.70;97.30;;;;;;4995930;28;20786;-84
2021/04/06 11:47:22;;;;;;;4.77;3.10;;;5.20;97.30;;;;;;5006486;28;20519;-84
2021/04/06 11:49:48;;;;;;;12.40;4.10;;;5.40;97.30;;;;;;5014704;28;20260;-85
2021/04/06 11:52:14;;;;;;;5.63;3.27;;;5.90;97.30;;;;;;5014672;28;20224;-85
2021/04/06 11:54:41;;;;;;;5.70;2.67;;;5.90;97.30;;;;;;5014128;28;20185;-83
2021/04/06 11:57:06;;;;;;;9.27;3.00;;;6.00;97.30;;;;;;5014717;28;20173;-85
2021/04/06 11:59:33;;;;;;;8.90;2.60;;;5.80;97.30;;;;;;5014124;28;20424;-85
2021/04/06 12:01:59;;;;;;;2.13;1.87;;;5.80;97.30;;;;;;5014675;28;20194;-85
2021/04/06 12:04:24;;;;;;;9.07;2.77;;;5.80;97.10;;;;;;5014472;28;20424;-85
2021/04/06 12:06:50;;;;;;;4.67;2.27;;;5.70;97.30;;;;;;5013954;28;20412;-84
2021/04/06 12:09:16;;;;;;;8.53;2.60;;;5.30;96.20;;;;;;5015447;28;20188;-84
2021/04/06 12:11:41;;;;;;;4.30;2.20;;;4.70;97.20;;;;;;5000068;28;20252;-84
2021/04/06 12:14:08;;;;;;;8.13;2.53;;;4.00;97.30;;;;;;4993573;28;20628;-83
2021/04/06 12:16:33;;;;;;;3.43;1.97;;;3.60;97.30;;;;;;4993103;28;20181;-84
2021/04/06 12:18:59;;;;;;;5.47;2.00;;;3.20;97.30;;;;;;4992595;28;20458;-84
2021/04/06 12:21:25;;;;;;;2.67;1.80;;;2.90;97.30;;;;;;4992618;28;20861;-85
2021/04/06 12:23:50;;;;;;;4.70;2.70;;;2.80;97.30;;;;;;4992494;28;20183;-84
2021/04/06 12:26:16;;;;;;;2.83;1.77;;;2.70;97.30;;;;;;4993151;28;20971;-84
2021/04/06 12:28:42;;;;;;;2.33;1.50;;;2.70;97.30;;;;;;4992494;28;20205;-84
2021/04/06 12:31:08;;;;;;;7.43;1.50;;;2.90;97.30;;;;;;4993227;28;20624;-85
2021/04/06 12:33:33;;;;;;;2.00;1.40;;;3.10;97.30;;;;;;4992991;28;20645;-85
2021/04/06 12:36:01;;;;;;;1.60;1.47;;;3.20;97.30;;;;;;4993014;28;20182;-84
2021/04/06 12:38:26;;;;;;;2.93;1.50;;;3.50;97.30;;;;;;4993076;28;20213;-84
2021/04/06 12:40:52;;;;;;;14.60;2.40;;;3.80;96.90;;;;;;5004568;28;20533;-84
2021/04/06 12:43:18;;;;;;;10.03;1.93;;;4.30;95.50;;;;;;5004882;28;20569;-84
2021/04/06 12:45:44;;;;;;;3.53;1.90;;;5.30;96.50;;;;;;5002319;28;20184;-84
2021/04/06 12:48:13;;;;;;;4.03;1.80;;;5.90;93.30;;;;;;5003817;28;20428;-85
2021/04/06 12:50:38;;;;;;;4.30;2.37;;;5.50;91.60;;;;;;5000453;28;20197;-85
2021/04/06 12:53:04;;;;;;;5.47;2.20;;;5.30;92.90;;;;;;5004805;28;20430;-84
2021/04/06 12:55:30;;;;;;;4.63;2.10;;;4.90;94.90;;;;;;5004068;28;20177;-85
2021/04/06 12:57:56;;;;;;;4.20;2.60;;;4.40;96.60;;;;;;5011013;28;20269;-85
2021/04/06 13:00:23;;;;;;;6.30;2.90;;;4.00;97.30;;;;;;5002476;28;20671;-85
2021/04/06 13:02:50;;;;;;;9.37;2.53;;;3.80;97.30;;;;;;5003276;28;20478;-85
2021/04/06 13:05:18;;;;;;;5.83;2.37;;;3.50;97.30;;;;;;5001495;28;21028;-84
2021/04/06 13:07:44;;;;;;;4.20;2.33;;;3.40;97.30;;;;;;4999297;28;20425;-85
2021/04/06 13:10:11;;;;;;;5.40;2.00;;;3.40;97.30;;;;;;5004549;28;20436;-85